RYR84KK LEAM-EBCI
Flight info
| Callsign | RYR84KK |
|---|---|
| Flight time | 2h 24m |
| Altitude | 36000 |
| Route | ESILA N865 VTB DCT RBO DCT OSTIX DCT GASMO DCT DGO N858 ABRIX DCT CNA DCT ADABI/N0425F340 DCT BOKNO UN858 VANAD UN874 BAMES UT191 PODEM UN873 BAZOS DCT BELDI DCT VEKIN Z173 ARVOL |
| Aircraft | B738/M-SDE2E3FGHIRWXY/LB1 |
Departure
| Time | 2026-04-21 07:44 |
|---|---|
| Airport | Almería Airport (LEAM) |
Arrival
| Time | 2026-04-21 10:09 |
|---|---|
| Airport | Brussels South Charleroi Airport (EBCI) |
| Time | Latitude | Longitude | Altitude | Speed | Heading |
|---|---|---|---|---|---|
| 2026-04-21 07:17 | 36.84632 | -2.37331 | 59 ft | 0 kts | 114° |
| 2026-04-21 07:38 | 36.84628 | -2.37322 | 62 ft | 5 kts | 116° |
| 2026-04-21 07:38 | 36.84599 | -2.37271 | 67 ft | 8 kts | 121° |
| 2026-04-21 07:38 | 36.84596 | -2.37203 | 59 ft | 8 kts | 73° |
| 2026-04-21 07:39 | 36.84613 | -2.37137 | 61 ft | 8 kts | 72° |
| 2026-04-21 07:39 | 36.84629 | -2.37071 | 60 ft | 8 kts | 72° |
| 2026-04-21 07:39 | 36.84647 | -2.37000 | 63 ft | 9 kts | 72° |
| 2026-04-21 07:39 | 36.84635 | -2.36921 | 62 ft | 10 kts | 127° |
| 2026-04-21 07:40 | 36.84613 | -2.36838 | 60 ft | 10 kts | 83° |
| 2026-04-21 07:40 | 36.84632 | -2.36752 | 61 ft | 10 kts | 73° |
| 2026-04-21 07:40 | 36.84654 | -2.36659 | 58 ft | 13 kts | 73° |
| 2026-04-21 07:40 | 36.84687 | -2.36525 | 61 ft | 18 kts | 73° |
| 2026-04-21 07:41 | 36.84725 | -2.36373 | 60 ft | 18 kts | 72° |
| 2026-04-21 07:41 | 36.84762 | -2.36227 | 62 ft | 17 kts | 72° |
| 2026-04-21 07:41 | 36.84798 | -2.36086 | 56 ft | 17 kts | 72° |
| 2026-04-21 07:41 | 36.84831 | -2.35949 | 63 ft | 16 kts | 73° |
| 2026-04-21 07:42 | 36.84862 | -2.35817 | 62 ft | 15 kts | 73° |
| 2026-04-21 07:42 | 36.84892 | -2.35691 | 62 ft | 15 kts | 73° |
| 2026-04-21 07:42 | 36.84921 | -2.35570 | 62 ft | 14 kts | 73° |
| 2026-04-21 07:42 | 36.84949 | -2.35454 | 60 ft | 14 kts | 77° |
| 2026-04-21 07:43 | 36.84917 | -2.35353 | 60 ft | 13 kts | 144° |
| 2026-04-21 07:43 | 36.84826 | -2.35324 | 57 ft | 15 kts | 195° |
| 2026-04-21 07:43 | 36.84780 | -2.35440 | 57 ft | 19 kts | 253° |
| 2026-04-21 07:43 | 36.84680 | -2.35854 | 54 ft | 85 kts | 253° |
| 2026-04-21 07:44 | 36.84440 | -2.36825 | 56 ft | 147 kts | 253° |
| 2026-04-21 07:44 | 36.84108 | -2.38203 | 378 ft | 170 kts | 255° |
| 2026-04-21 07:44 | 36.83785 | -2.39604 | 1167 ft | 173 kts | 258° |
| 2026-04-21 07:44 | 36.83952 | -2.41054 | 1798 ft | 176 kts | 305° |
| 2026-04-21 07:45 | 36.84744 | -2.42368 | 2136 ft | 205 kts | 309° |
| 2026-04-21 07:45 | 36.85667 | -2.43853 | 2366 ft | 228 kts | 308° |
| 2026-04-21 07:45 | 36.86664 | -2.45482 | 2674 ft | 242 kts | 308° |
| 2026-04-21 07:45 | 36.87693 | -2.47188 | 3165 ft | 249 kts | 307° |
| 2026-04-21 07:46 | 36.88734 | -2.48939 | 3744 ft | 253 kts | 306° |
| 2026-04-21 07:46 | 36.89779 | -2.50715 | 4473 ft | 254 kts | 305° |
| 2026-04-21 07:46 | 36.90812 | -2.52487 | 5315 ft | 252 kts | 304° |
| 2026-04-21 07:46 | 36.91844 | -2.54266 | 6106 ft | 254 kts | 304° |
| 2026-04-21 07:47 | 36.92905 | -2.56103 | 6539 ft | 270 kts | 303° |
| 2026-04-21 07:47 | 36.93941 | -2.58112 | 7105 ft | 277 kts | 298° |
| 2026-04-21 07:47 | 36.94894 | -2.60218 | 7794 ft | 280 kts | 297° |
| 2026-04-21 07:47 | 36.95843 | -2.62372 | 8501 ft | 284 kts | 296° |
| 2026-04-21 07:48 | 36.96796 | -2.64533 | 9303 ft | 283 kts | 296° |
| 2026-04-21 07:48 | 36.97753 | -2.66690 | 10040 ft | 285 kts | 297° |
| 2026-04-21 07:48 | 36.98741 | -2.68911 | 10380 ft | 304 kts | 296° |
| 2026-04-21 07:48 | 36.99809 | -2.71309 | 10552 ft | 326 kts | 296° |
| 2026-04-21 07:49 | 37.00941 | -2.73834 | 10996 ft | 337 kts | 297° |
| 2026-04-21 07:49 | 37.02097 | -2.76402 | 11652 ft | 341 kts | 297° |
| 2026-04-21 07:49 | 37.03251 | -2.78962 | 12371 ft | 343 kts | 297° |
| 2026-04-21 07:49 | 37.04430 | -2.81579 | 13047 ft | 348 kts | 297° |
| 2026-04-21 07:50 | 37.05635 | -2.84264 | 13738 ft | 352 kts | 298° |
| 2026-04-21 07:50 | 37.06846 | -2.86945 | 14378 ft | 356 kts | 298° |
| 2026-04-21 07:50 | 37.08049 | -2.89617 | 15109 ft | 357 kts | 297° |
| 2026-04-21 07:50 | 37.09273 | -2.92339 | 15855 ft | 359 kts | 297° |
| 2026-04-21 07:51 | 37.10496 | -2.95066 | 16571 ft | 361 kts | 297° |
| 2026-04-21 07:51 | 37.11733 | -2.97829 | 17153 ft | 366 kts | 297° |
| 2026-04-21 07:51 | 37.12989 | -3.00636 | 17801 ft | 370 kts | 297° |
| 2026-04-21 07:51 | 37.14250 | -3.03454 | 18462 ft | 373 kts | 297° |
| 2026-04-21 07:52 | 37.15522 | -3.06298 | 19040 ft | 376 kts | 297° |
| 2026-04-21 07:52 | 37.16802 | -3.09164 | 19635 ft | 378 kts | 297° |
| 2026-04-21 07:52 | 37.18095 | -3.12061 | 20217 ft | 381 kts | 297° |
| 2026-04-21 07:52 | 37.19391 | -3.14965 | 20795 ft | 383 kts | 297° |
| 2026-04-21 07:53 | 37.20695 | -3.17893 | 21386 ft | 385 kts | 296° |
| 2026-04-21 07:53 | 37.22003 | -3.20830 | 21953 ft | 387 kts | 296° |
| 2026-04-21 07:53 | 37.23320 | -3.23789 | 22522 ft | 390 kts | 296° |
| 2026-04-21 07:53 | 37.24645 | -3.26772 | 23050 ft | 393 kts | 296° |
| 2026-04-21 07:54 | 37.25955 | -3.29787 | 23573 ft | 395 kts | 295° |
| 2026-04-21 07:54 | 37.27204 | -3.32873 | 24019 ft | 396 kts | 294° |
| 2026-04-21 07:54 | 37.28428 | -3.35982 | 24449 ft | 398 kts | 293° |
| 2026-04-21 07:54 | 37.29657 | -3.39108 | 24882 ft | 401 kts | 293° |
| 2026-04-21 07:55 | 37.30898 | -3.42247 | 25288 ft | 403 kts | 294° |
| 2026-04-21 07:55 | 37.32157 | -3.45416 | 25658 ft | 407 kts | 294° |
| 2026-04-21 07:55 | 37.33432 | -3.48616 | 26003 ft | 411 kts | 294° |
| 2026-04-21 07:55 | 37.34716 | -3.51831 | 26445 ft | 412 kts | 294° |
| 2026-04-21 07:56 | 37.36004 | -3.55062 | 26856 ft | 414 kts | 293° |
| 2026-04-21 07:56 | 37.37402 | -3.58240 | 27190 ft | 421 kts | 303° |
| 2026-04-21 07:56 | 37.39514 | -3.60828 | 27530 ft | 432 kts | 322° |
| 2026-04-21 07:56 | 37.42212 | -3.62537 | 27959 ft | 440 kts | 338° |
| 2026-04-21 07:57 | 37.45251 | -3.63232 | 28360 ft | 448 kts | 355° |
| 2026-04-21 07:57 | 37.48375 | -3.63233 | 28741 ft | 451 kts | 358° |
| 2026-04-21 07:57 | 37.51532 | -3.63134 | 29021 ft | 455 kts | 359° |
| 2026-04-21 07:57 | 37.54706 | -3.63032 | 29324 ft | 458 kts | 358° |
| 2026-04-21 07:58 | 37.57906 | -3.62962 | 29663 ft | 460 kts | 358° |
| 2026-04-21 07:58 | 37.61062 | -3.62925 | 29958 ft | 461 kts | 357° |
| 2026-04-21 07:58 | 37.64283 | -3.62901 | 30238 ft | 463 kts | 357° |
| 2026-04-21 07:58 | 37.67543 | -3.62880 | 30567 ft | 463 kts | 358° |
| 2026-04-21 07:59 | 37.70723 | -3.62861 | 30914 ft | 462 kts | 357° |
| 2026-04-21 07:59 | 37.73933 | -3.62837 | 31260 ft | 462 kts | 357° |
| 2026-04-21 07:59 | 37.77158 | -3.62810 | 31547 ft | 463 kts | 357° |
| 2026-04-21 07:59 | 37.80380 | -3.62782 | 31841 ft | 464 kts | 357° |
| 2026-04-21 08:00 | 37.83614 | -3.62755 | 32162 ft | 464 kts | 357° |
| 2026-04-21 08:00 | 37.86848 | -3.62728 | 32475 ft | 464 kts | 357° |
| 2026-04-21 08:00 | 37.90077 | -3.62702 | 32761 ft | 465 kts | 357° |
| 2026-04-21 08:00 | 37.93318 | -3.62676 | 33078 ft | 465 kts | 357° |
| 2026-04-21 08:01 | 37.96542 | -3.62650 | 33418 ft | 464 kts | 357° |
| 2026-04-21 08:01 | 37.99771 | -3.62624 | 33724 ft | 464 kts | 357° |
| 2026-04-21 08:01 | 38.03009 | -3.62599 | 33980 ft | 465 kts | 356° |
| 2026-04-21 08:02 | 38.09462 | -3.62547 | 34554 ft | 463 kts | 356° |
| 2026-04-21 08:02 | 38.12688 | -3.62521 | 34833 ft | 462 kts | 356° |
| 2026-04-21 08:02 | 38.15894 | -3.62475 | 35136 ft | 461 kts | 358° |
| 2026-04-21 08:02 | 38.19104 | -3.62270 | 35445 ft | 461 kts | 0° |
| 2026-04-21 08:03 | 38.22303 | -3.61960 | 35714 ft | 461 kts | 1° |
| 2026-04-21 08:03 | 38.25492 | -3.61613 | 35904 ft | 461 kts | 1° |
| 2026-04-21 08:03 | 38.28711 | -3.61258 | 35894 ft | 466 kts | 1° |
| 2026-04-21 08:04 | 38.35171 | -3.60579 | 35921 ft | 465 kts | 1° |
| 2026-04-21 08:04 | 38.41573 | -3.59940 | 35902 ft | 458 kts | 0° |
| 2026-04-21 08:05 | 38.47929 | -3.59322 | 35907 ft | 458 kts | 0° |
| 2026-04-21 08:05 | 38.54271 | -3.58705 | 35931 ft | 457 kts | 0° |
| 2026-04-21 08:06 | 38.60607 | -3.58086 | 35934 ft | 457 kts | 0° |
| 2026-04-21 08:06 | 38.66947 | -3.57464 | 35929 ft | 457 kts | 0° |
| 2026-04-21 08:07 | 38.73294 | -3.56839 | 35931 ft | 458 kts | 0° |
| 2026-04-21 08:07 | 38.79662 | -3.56212 | 35920 ft | 459 kts | 0° |
| 2026-04-21 08:08 | 38.86032 | -3.55583 | 35948 ft | 460 kts | 0° |
| 2026-04-21 08:08 | 38.92415 | -3.54952 | 35939 ft | 460 kts | 0° |
| 2026-04-21 08:09 | 38.98804 | -3.54319 | 35928 ft | 461 kts | 0° |
| 2026-04-21 08:09 | 39.05191 | -3.53688 | 35929 ft | 460 kts | 0° |
| 2026-04-21 08:10 | 39.11572 | -3.53058 | 35937 ft | 460 kts | 0° |
| 2026-04-21 08:10 | 39.17959 | -3.52427 | 35935 ft | 459 kts | 0° |
| 2026-04-21 08:11 | 39.24317 | -3.51797 | 35938 ft | 459 kts | 0° |
| 2026-04-21 08:11 | 39.30643 | -3.51169 | 35949 ft | 458 kts | 0° |
| 2026-04-21 08:12 | 39.36996 | -3.50537 | 35948 ft | 458 kts | 0° |
| 2026-04-21 08:12 | 39.43334 | -3.49906 | 35946 ft | 457 kts | 0° |
| 2026-04-21 08:13 | 39.49673 | -3.49273 | 35945 ft | 456 kts | 0° |
| 2026-04-21 08:13 | 39.56004 | -3.48640 | 35961 ft | 456 kts | 0° |
| 2026-04-21 08:14 | 39.62325 | -3.48003 | 35946 ft | 456 kts | 0° |
| 2026-04-21 08:14 | 39.68646 | -3.47361 | 35949 ft | 455 kts | 0° |
| 2026-04-21 08:15 | 39.74961 | -3.46720 | 35949 ft | 455 kts | 0° |
| 2026-04-21 08:15 | 39.81271 | -3.45908 | 35945 ft | 457 kts | 4° |
| 2026-04-21 08:16 | 39.87550 | -3.44637 | 35946 ft | 457 kts | 6° |
| 2026-04-21 08:16 | 39.92774 | -3.43522 | 35947 ft | 457 kts | 6° |
| 2026-04-21 08:17 | 39.99046 | -3.42224 | 35964 ft | 456 kts | 5° |
| 2026-04-21 08:17 | 40.05309 | -3.40960 | 35949 ft | 456 kts | 5° |
| 2026-04-21 08:18 | 40.11577 | -3.39703 | 35943 ft | 455 kts | 5° |
| 2026-04-21 08:18 | 40.17831 | -3.38447 | 35945 ft | 455 kts | 5° |
| 2026-04-21 08:19 | 40.24093 | -3.37185 | 35956 ft | 455 kts | 5° |
| 2026-04-21 08:19 | 40.30334 | -3.35925 | 35958 ft | 454 kts | 5° |
| 2026-04-21 08:20 | 40.36577 | -3.34662 | 35964 ft | 454 kts | 5° |
| 2026-04-21 08:20 | 40.42813 | -3.33398 | 35981 ft | 454 kts | 5° |
| 2026-04-21 08:21 | 40.49050 | -3.32131 | 35972 ft | 454 kts | 5° |
| 2026-04-21 08:21 | 40.55291 | -3.30861 | 35967 ft | 453 kts | 5° |
| 2026-04-21 08:22 | 40.61525 | -3.29590 | 35964 ft | 453 kts | 5° |
| 2026-04-21 08:22 | 40.67750 | -3.28319 | 35962 ft | 453 kts | 5° |
| 2026-04-21 08:23 | 40.73984 | -3.27043 | 35963 ft | 453 kts | 5° |
| 2026-04-21 08:23 | 40.80203 | -3.25768 | 35960 ft | 452 kts | 5° |
| 2026-04-21 08:24 | 40.86386 | -3.24495 | 35965 ft | 453 kts | 6° |
| 2026-04-21 08:24 | 40.92607 | -3.23118 | 35958 ft | 453 kts | 6° |
| 2026-04-21 08:25 | 40.98828 | -3.21701 | 35953 ft | 454 kts | 6° |
| 2026-04-21 08:25 | 41.05049 | -3.20290 | 35952 ft | 454 kts | 6° |
| 2026-04-21 08:26 | 41.11272 | -3.18885 | 35957 ft | 454 kts | 6° |
| 2026-04-21 08:26 | 41.17504 | -3.17478 | 35949 ft | 455 kts | 6° |
| 2026-04-21 08:27 | 41.23737 | -3.16068 | 35943 ft | 454 kts | 6° |
| 2026-04-21 08:27 | 41.29980 | -3.14652 | 35945 ft | 454 kts | 6° |
| 2026-04-21 08:28 | 41.36207 | -3.13237 | 35956 ft | 454 kts | 7° |
| 2026-04-21 08:28 | 41.42442 | -3.11817 | 35939 ft | 454 kts | 7° |
| 2026-04-21 08:29 | 41.48672 | -3.10396 | 35938 ft | 454 kts | 7° |
| 2026-04-21 08:29 | 41.54901 | -3.08980 | 35951 ft | 454 kts | 7° |
| 2026-04-21 08:30 | 41.61126 | -3.07573 | 35938 ft | 453 kts | 7° |
| 2026-04-21 08:30 | 41.67342 | -3.06164 | 35939 ft | 453 kts | 7° |
| 2026-04-21 08:31 | 41.73546 | -3.04754 | 35938 ft | 452 kts | 7° |
| 2026-04-21 08:31 | 41.79754 | -3.03331 | 35936 ft | 452 kts | 7° |
| 2026-04-21 08:32 | 41.85945 | -3.01904 | 35934 ft | 452 kts | 7° |
| 2026-04-21 08:32 | 41.92147 | -3.00474 | 35930 ft | 451 kts | 7° |
| 2026-04-21 08:33 | 41.98330 | -2.99045 | 35942 ft | 451 kts | 7° |
| 2026-04-21 08:33 | 42.04513 | -2.97614 | 35933 ft | 451 kts | 7° |
| 2026-04-21 08:34 | 42.10700 | -2.96179 | 35930 ft | 451 kts | 7° |
| 2026-04-21 08:34 | 42.16889 | -2.94741 | 35922 ft | 451 kts | 7° |
| 2026-04-21 08:35 | 42.23072 | -2.93299 | 35939 ft | 450 kts | 7° |
| 2026-04-21 08:35 | 42.29239 | -2.91862 | 35931 ft | 449 kts | 7° |
| 2026-04-21 08:36 | 42.35402 | -2.90421 | 35923 ft | 449 kts | 7° |
| 2026-04-21 08:36 | 42.41504 | -2.88991 | 35927 ft | 448 kts | 7° |
| 2026-04-21 08:37 | 42.47531 | -2.86583 | 35918 ft | 453 kts | 25° |
| 2026-04-21 08:37 | 42.53008 | -2.82478 | 35919 ft | 454 kts | 27° |
| 2026-04-21 08:38 | 42.58485 | -2.78225 | 35928 ft | 453 kts | 27° |
| 2026-04-21 08:38 | 42.63977 | -2.74010 | 35924 ft | 454 kts | 27° |
| 2026-04-21 08:39 | 42.69483 | -2.69822 | 35933 ft | 454 kts | 27° |
| 2026-04-21 08:39 | 42.75008 | -2.65625 | 35943 ft | 454 kts | 27° |
| 2026-04-21 08:40 | 42.80519 | -2.61432 | 35934 ft | 455 kts | 27° |
| 2026-04-21 08:40 | 42.86036 | -2.57223 | 35939 ft | 455 kts | 27° |
| 2026-04-21 08:41 | 42.91555 | -2.53002 | 35895 ft | 455 kts | 27° |
| 2026-04-21 08:41 | 42.97069 | -2.48777 | 35897 ft | 455 kts | 27° |
| 2026-04-21 08:42 | 43.02579 | -2.44545 | 35888 ft | 454 kts | 27° |
| 2026-04-21 08:42 | 43.08084 | -2.40309 | 35889 ft | 454 kts | 27° |
| 2026-04-21 08:43 | 43.13587 | -2.36066 | 35878 ft | 454 kts | 27° |
| 2026-04-21 08:43 | 43.19053 | -2.31843 | 35883 ft | 453 kts | 27° |
| 2026-04-21 08:44 | 43.24546 | -2.27590 | 35888 ft | 453 kts | 27° |
| 2026-04-21 08:44 | 43.30035 | -2.23330 | 35878 ft | 453 kts | 27° |
| 2026-04-21 08:45 | 43.35512 | -2.19072 | 35876 ft | 452 kts | 27° |
| 2026-04-21 08:45 | 43.40985 | -2.14807 | 35884 ft | 451 kts | 27° |
| 2026-04-21 08:46 | 43.46439 | -2.10549 | 35885 ft | 451 kts | 27° |
| 2026-04-21 08:46 | 43.51897 | -2.06278 | 35885 ft | 450 kts | 27° |
| 2026-04-21 08:47 | 43.57339 | -2.02009 | 35885 ft | 450 kts | 27° |
| 2026-04-21 08:47 | 43.62775 | -1.97739 | 35900 ft | 450 kts | 27° |
| 2026-04-21 08:48 | 43.68217 | -1.93455 | 35893 ft | 450 kts | 27° |
| 2026-04-21 08:48 | 43.73646 | -1.89171 | 35896 ft | 450 kts | 27° |
| 2026-04-21 08:49 | 43.79075 | -1.84878 | 35891 ft | 450 kts | 27° |
| 2026-04-21 08:49 | 43.84508 | -1.80572 | 35907 ft | 450 kts | 27° |
| 2026-04-21 08:50 | 43.89930 | -1.76265 | 35898 ft | 450 kts | 27° |
| 2026-04-21 08:50 | 43.95363 | -1.71940 | 35899 ft | 450 kts | 27° |
| 2026-04-21 08:51 | 44.00782 | -1.67617 | 35893 ft | 450 kts | 27° |
| 2026-04-21 08:51 | 44.06213 | -1.63276 | 35896 ft | 450 kts | 27° |
| 2026-04-21 08:52 | 44.11605 | -1.58957 | 35896 ft | 450 kts | 27° |
| 2026-04-21 08:52 | 44.17054 | -1.54582 | 35895 ft | 450 kts | 27° |
| 2026-04-21 08:53 | 44.22479 | -1.50217 | 35909 ft | 450 kts | 26° |
| 2026-04-21 08:53 | 44.27892 | -1.45853 | 35900 ft | 450 kts | 26° |
| 2026-04-21 08:54 | 44.33312 | -1.41474 | 35907 ft | 449 kts | 26° |
| 2026-04-21 08:54 | 44.38718 | -1.37096 | 35907 ft | 449 kts | 26° |
| 2026-04-21 08:55 | 44.44112 | -1.32719 | 35917 ft | 449 kts | 26° |
| 2026-04-21 08:55 | 44.49473 | -1.28359 | 35909 ft | 448 kts | 26° |
| 2026-04-21 08:56 | 44.54861 | -1.23968 | 35916 ft | 448 kts | 26° |
| 2026-04-21 08:56 | 44.60244 | -1.19572 | 35910 ft | 448 kts | 26° |
| 2026-04-21 08:57 | 44.65627 | -1.15165 | 35916 ft | 447 kts | 26° |
| 2026-04-21 08:57 | 44.70996 | -1.10761 | 35918 ft | 447 kts | 26° |
| 2026-04-21 08:58 | 44.76363 | -1.06349 | 35918 ft | 446 kts | 26° |
| 2026-04-21 08:58 | 44.81708 | -1.01945 | 35925 ft | 445 kts | 26° |
| 2026-04-21 08:59 | 44.87056 | -0.97529 | 35927 ft | 445 kts | 26° |
| 2026-04-21 08:59 | 44.92389 | -0.93117 | 35938 ft | 444 kts | 26° |
| 2026-04-21 09:00 | 44.97714 | -0.88701 | 35933 ft | 444 kts | 26° |
| 2026-04-21 09:00 | 45.03039 | -0.84276 | 35940 ft | 444 kts | 26° |
| 2026-04-21 09:01 | 45.07460 | -0.80594 | 35934 ft | 444 kts | 26° |
| 2026-04-21 09:01 | 45.12777 | -0.76158 | 35941 ft | 444 kts | 26° |
| 2026-04-21 09:02 | 45.18093 | -0.71712 | 35940 ft | 444 kts | 26° |
| 2026-04-21 09:02 | 45.23407 | -0.67258 | 35941 ft | 443 kts | 26° |
| 2026-04-21 09:03 | 45.31359 | -0.60576 | 35959 ft | 442 kts | 26° |
| 2026-04-21 09:03 | 45.36654 | -0.56113 | 35954 ft | 442 kts | 26° |
| 2026-04-21 09:04 | 45.41943 | -0.51646 | 35971 ft | 442 kts | 26° |
| 2026-04-21 09:04 | 45.47232 | -0.47169 | 35966 ft | 442 kts | 26° |
| 2026-04-21 09:05 | 45.52513 | -0.42689 | 35966 ft | 442 kts | 26° |
| 2026-04-21 09:05 | 45.57788 | -0.38204 | 35964 ft | 441 kts | 26° |
| 2026-04-21 09:06 | 45.63063 | -0.33710 | 35972 ft | 441 kts | 25° |
| 2026-04-21 09:06 | 45.68314 | -0.29166 | 35964 ft | 442 kts | 27° |
| 2026-04-21 09:07 | 45.73487 | -0.24405 | 35977 ft | 442 kts | 28° |
| 2026-04-21 09:07 | 45.78636 | -0.19609 | 35996 ft | 441 kts | 27° |
| 2026-04-21 09:08 | 45.83788 | -0.14827 | 35986 ft | 441 kts | 27° |
| 2026-04-21 09:08 | 45.88951 | -0.10045 | 35980 ft | 441 kts | 27° |
| 2026-04-21 09:09 | 45.94101 | -0.05269 | 35984 ft | 441 kts | 27° |
| 2026-04-21 09:09 | 45.99214 | -0.00516 | 36009 ft | 440 kts | 27° |
| 2026-04-21 09:10 | 46.04352 | 0.04270 | 35993 ft | 440 kts | 27° |
| 2026-04-21 09:10 | 46.09497 | 0.09075 | 35994 ft | 440 kts | 27° |
| 2026-04-21 09:11 | 46.14617 | 0.13867 | 35997 ft | 439 kts | 27° |
| 2026-04-21 09:11 | 46.19746 | 0.18679 | 36015 ft | 439 kts | 27° |
| 2026-04-21 09:12 | 46.24870 | 0.23496 | 36014 ft | 439 kts | 27° |
| 2026-04-21 09:12 | 46.29987 | 0.28318 | 36014 ft | 439 kts | 27° |
| 2026-04-21 09:13 | 46.35095 | 0.33143 | 36019 ft | 439 kts | 27° |
| 2026-04-21 09:13 | 46.40204 | 0.37979 | 36028 ft | 439 kts | 28° |
| 2026-04-21 09:14 | 46.45313 | 0.42826 | 36046 ft | 439 kts | 28° |
| 2026-04-21 09:14 | 46.50431 | 0.47693 | 36048 ft | 440 kts | 28° |
| 2026-04-21 09:15 | 46.55614 | 0.52369 | 36038 ft | 435 kts | 20° |
| 2026-04-21 09:15 | 46.61292 | 0.54980 | 36054 ft | 426 kts | 7° |
| 2026-04-21 09:16 | 46.67081 | 0.56790 | 36051 ft | 427 kts | 7° |
| 2026-04-21 09:16 | 46.72888 | 0.58638 | 36049 ft | 427 kts | 7° |
| 2026-04-21 09:17 | 46.78661 | 0.60532 | 36048 ft | 428 kts | 8° |
| 2026-04-21 09:17 | 46.84469 | 0.62458 | 36066 ft | 428 kts | 8° |
| 2026-04-21 09:18 | 46.90319 | 0.64403 | 36063 ft | 429 kts | 8° |
| 2026-04-21 09:18 | 46.96095 | 0.66327 | 36064 ft | 429 kts | 8° |
| 2026-04-21 09:19 | 47.01912 | 0.68267 | 36081 ft | 428 kts | 8° |
| 2026-04-21 09:19 | 47.07747 | 0.69717 | 36086 ft | 422 kts | 360° |
| 2026-04-21 09:20 | 47.13594 | 0.70251 | 36089 ft | 420 kts | 358° |
| 2026-04-21 09:20 | 47.19430 | 0.70759 | 36124 ft | 420 kts | 359° |
| 2026-04-21 09:21 | 47.25255 | 0.71339 | 36118 ft | 419 kts | 359° |
| 2026-04-21 09:21 | 47.31067 | 0.71947 | 36125 ft | 418 kts | 359° |
| 2026-04-21 09:22 | 47.36871 | 0.72559 | 36129 ft | 417 kts | 359° |
| 2026-04-21 09:22 | 47.42652 | 0.73167 | 36136 ft | 417 kts | 359° |
| 2026-04-21 09:23 | 47.48434 | 0.73800 | 36131 ft | 417 kts | 1° |
| 2026-04-21 09:23 | 47.54111 | 0.75936 | 36137 ft | 424 kts | 13° |
| 2026-04-21 09:24 | 47.59668 | 0.78765 | 36140 ft | 425 kts | 13° |
| 2026-04-21 09:24 | 47.65301 | 0.81599 | 36126 ft | 424 kts | 13° |
| 2026-04-21 09:25 | 47.70893 | 0.84366 | 36136 ft | 424 kts | 13° |
| 2026-04-21 09:25 | 47.76482 | 0.87124 | 36125 ft | 423 kts | 13° |
| 2026-04-21 09:26 | 47.82069 | 0.89889 | 36144 ft | 423 kts | 13° |
| 2026-04-21 09:26 | 47.87619 | 0.92663 | 36132 ft | 423 kts | 13° |
| 2026-04-21 09:27 | 47.93186 | 0.95482 | 36135 ft | 422 kts | 13° |
| 2026-04-21 09:27 | 47.98752 | 0.98307 | 36143 ft | 422 kts | 13° |
| 2026-04-21 09:28 | 48.04310 | 1.01130 | 36144 ft | 422 kts | 13° |
| 2026-04-21 09:28 | 48.09869 | 1.03958 | 36139 ft | 422 kts | 13° |
| 2026-04-21 09:29 | 48.15420 | 1.06790 | 36149 ft | 421 kts | 13° |
| 2026-04-21 09:29 | 48.20958 | 1.09621 | 36148 ft | 421 kts | 13° |
| 2026-04-21 09:30 | 48.26507 | 1.12451 | 36161 ft | 421 kts | 13° |
| 2026-04-21 09:30 | 48.32059 | 1.15279 | 36156 ft | 421 kts | 13° |
| 2026-04-21 09:31 | 48.37616 | 1.18117 | 36152 ft | 421 kts | 13° |
| 2026-04-21 09:31 | 48.43167 | 1.20962 | 36182 ft | 422 kts | 13° |
| 2026-04-21 09:32 | 48.48719 | 1.23813 | 36166 ft | 422 kts | 13° |
| 2026-04-21 09:32 | 48.54271 | 1.26671 | 36166 ft | 422 kts | 13° |
| 2026-04-21 09:33 | 48.59842 | 1.29504 | 36172 ft | 422 kts | 12° |
| 2026-04-21 09:33 | 48.65420 | 1.32304 | 36197 ft | 423 kts | 12° |
| 2026-04-21 09:34 | 48.71007 | 1.35119 | 36187 ft | 424 kts | 12° |
| 2026-04-21 09:34 | 48.76564 | 1.37933 | 36186 ft | 424 kts | 12° |
| 2026-04-21 09:35 | 48.82194 | 1.40792 | 36197 ft | 424 kts | 12° |
| 2026-04-21 09:35 | 48.87747 | 1.43619 | 36198 ft | 424 kts | 12° |
| 2026-04-21 09:36 | 48.93330 | 1.46467 | 36204 ft | 423 kts | 12° |
| 2026-04-21 09:36 | 48.98946 | 1.49085 | 36194 ft | 417 kts | 4° |
| 2026-04-21 09:37 | 49.04651 | 1.50382 | 36200 ft | 414 kts | 2° |
| 2026-04-21 09:37 | 49.10357 | 1.51616 | 36212 ft | 415 kts | 2° |
| 2026-04-21 09:38 | 49.13204 | 1.52268 | 36045 ft | 412 kts | 2° |
| 2026-04-21 09:38 | 49.16022 | 1.52929 | 35760 ft | 405 kts | 2° |
| 2026-04-21 09:38 | 49.18789 | 1.53583 | 35353 ft | 401 kts | 2° |
| 2026-04-21 09:38 | 49.21535 | 1.54230 | 34993 ft | 397 kts | 1° |
| 2026-04-21 09:39 | 49.24235 | 1.55194 | 34589 ft | 404 kts | 13° |
| 2026-04-21 09:39 | 49.26809 | 1.57018 | 34206 ft | 410 kts | 22° |
| 2026-04-21 09:39 | 49.29166 | 1.59552 | 33740 ft | 419 kts | 33° |
| 2026-04-21 09:39 | 49.31297 | 1.62598 | 33382 ft | 418 kts | 36° |
| 2026-04-21 09:40 | 49.33373 | 1.65702 | 32963 ft | 416 kts | 36° |
| 2026-04-21 09:40 | 49.35426 | 1.68793 | 32580 ft | 412 kts | 35° |
| 2026-04-21 09:40 | 49.37469 | 1.71846 | 32197 ft | 408 kts | 35° |
| 2026-04-21 09:40 | 49.39508 | 1.74865 | 31827 ft | 405 kts | 34° |
| 2026-04-21 09:41 | 49.41505 | 1.77806 | 31463 ft | 401 kts | 34° |
| 2026-04-21 09:41 | 49.43539 | 1.80791 | 31125 ft | 398 kts | 34° |
| 2026-04-21 09:41 | 49.45536 | 1.83722 | 30751 ft | 396 kts | 33° |
| 2026-04-21 09:41 | 49.47522 | 1.86640 | 30387 ft | 394 kts | 33° |
| 2026-04-21 09:42 | 49.49472 | 1.89510 | 30016 ft | 391 kts | 33° |
| 2026-04-21 09:42 | 49.51431 | 1.92399 | 29646 ft | 388 kts | 33° |
| 2026-04-21 09:42 | 49.53367 | 1.95258 | 29239 ft | 385 kts | 33° |
| 2026-04-21 09:42 | 49.55295 | 1.98109 | 28832 ft | 382 kts | 33° |
| 2026-04-21 09:43 | 49.57199 | 2.00926 | 28441 ft | 379 kts | 33° |
| 2026-04-21 09:43 | 49.59091 | 2.03728 | 28075 ft | 375 kts | 33° |
| 2026-04-21 09:43 | 49.60962 | 2.06502 | 27715 ft | 372 kts | 33° |
| 2026-04-21 09:43 | 49.62821 | 2.09260 | 27347 ft | 369 kts | 33° |
| 2026-04-21 09:44 | 49.64666 | 2.12001 | 26987 ft | 366 kts | 33° |
| 2026-04-21 09:44 | 49.66494 | 2.14718 | 26630 ft | 364 kts | 33° |
| 2026-04-21 09:44 | 49.68311 | 2.17421 | 26268 ft | 361 kts | 33° |
| 2026-04-21 09:44 | 49.70116 | 2.20111 | 25916 ft | 359 kts | 33° |
| 2026-04-21 09:45 | 49.71908 | 2.22783 | 25555 ft | 358 kts | 33° |
| 2026-04-21 09:45 | 49.73690 | 2.25442 | 25212 ft | 356 kts | 34° |
| 2026-04-21 09:45 | 49.75474 | 2.28107 | 24848 ft | 356 kts | 35° |
| 2026-04-21 09:45 | 49.77247 | 2.30758 | 24484 ft | 354 kts | 35° |
| 2026-04-21 09:46 | 49.79017 | 2.33411 | 24114 ft | 354 kts | 36° |
| 2026-04-21 09:46 | 49.80781 | 2.36056 | 23737 ft | 352 kts | 36° |
| 2026-04-21 09:46 | 49.82533 | 2.38689 | 23322 ft | 350 kts | 36° |
| 2026-04-21 09:46 | 49.84277 | 2.41311 | 22943 ft | 348 kts | 37° |
| 2026-04-21 09:47 | 49.86003 | 2.43908 | 22573 ft | 345 kts | 37° |
| 2026-04-21 09:47 | 49.87718 | 2.46492 | 22218 ft | 342 kts | 37° |
| 2026-04-21 09:47 | 49.89414 | 2.49050 | 21860 ft | 339 kts | 37° |
| 2026-04-21 09:47 | 49.90533 | 2.50737 | 21627 ft | 338 kts | 37° |
| 2026-04-21 09:48 | 49.92212 | 2.53272 | 21287 ft | 335 kts | 38° |
| 2026-04-21 09:48 | 49.94408 | 2.56608 | 20839 ft | 333 kts | 41° |
| 2026-04-21 09:48 | 49.95834 | 2.59456 | 20493 ft | 337 kts | 54° |
| 2026-04-21 09:48 | 49.96564 | 2.61641 | 20253 ft | 338 kts | 61° |
| 2026-04-21 09:49 | 49.97499 | 2.64980 | 19912 ft | 337 kts | 63° |
| 2026-04-21 09:49 | 49.98402 | 2.68321 | 19570 ft | 335 kts | 63° |
| 2026-04-21 09:49 | 49.99296 | 2.71653 | 19237 ft | 333 kts | 64° |
| 2026-04-21 09:49 | 50.00185 | 2.74959 | 18905 ft | 330 kts | 65° |
| 2026-04-21 09:50 | 50.01070 | 2.78235 | 18569 ft | 328 kts | 65° |
| 2026-04-21 09:50 | 50.01653 | 2.80391 | 18324 ft | 326 kts | 65° |
| 2026-04-21 09:50 | 50.03610 | 2.87608 | 17510 ft | 319 kts | 65° |
| 2026-04-21 09:51 | 50.04471 | 2.90775 | 17177 ft | 316 kts | 65° |
| 2026-04-21 09:51 | 50.05308 | 2.93857 | 16873 ft | 312 kts | 65° |
| 2026-04-21 09:51 | 50.06158 | 2.96987 | 16534 ft | 309 kts | 66° |
| 2026-04-21 09:51 | 50.06978 | 3.00012 | 16208 ft | 306 kts | 65° |
| 2026-04-21 09:52 | 50.07813 | 3.03096 | 15887 ft | 303 kts | 66° |
| 2026-04-21 09:52 | 50.08615 | 3.06061 | 15571 ft | 300 kts | 66° |
| 2026-04-21 09:52 | 50.09433 | 3.09089 | 15253 ft | 298 kts | 66° |
| 2026-04-21 09:52 | 50.10228 | 3.12037 | 14936 ft | 295 kts | 66° |
| 2026-04-21 09:53 | 50.11012 | 3.14944 | 14634 ft | 293 kts | 66° |
| 2026-04-21 09:53 | 50.11796 | 3.17857 | 14323 ft | 291 kts | 67° |
| 2026-04-21 09:53 | 50.12576 | 3.20760 | 14024 ft | 289 kts | 67° |
| 2026-04-21 09:53 | 50.13348 | 3.23635 | 13678 ft | 287 kts | 67° |
| 2026-04-21 09:54 | 50.14115 | 3.26498 | 13344 ft | 285 kts | 67° |
| 2026-04-21 09:54 | 50.14873 | 3.29327 | 13017 ft | 282 kts | 67° |
| 2026-04-21 09:54 | 50.15625 | 3.32139 | 12724 ft | 279 kts | 68° |
| 2026-04-21 09:54 | 50.16366 | 3.34913 | 12409 ft | 276 kts | 68° |
| 2026-04-21 09:55 | 50.17102 | 3.37672 | 12107 ft | 274 kts | 68° |
| 2026-04-21 09:55 | 50.17829 | 3.40402 | 11810 ft | 272 kts | 68° |
| 2026-04-21 09:55 | 50.18553 | 3.43120 | 11511 ft | 270 kts | 68° |
| 2026-04-21 09:55 | 50.19268 | 3.45811 | 11217 ft | 268 kts | 68° |
| 2026-04-21 09:56 | 50.19978 | 3.48483 | 10931 ft | 266 kts | 68° |
| 2026-04-21 09:56 | 50.20684 | 3.51144 | 10627 ft | 264 kts | 68° |
| 2026-04-21 09:56 | 50.21383 | 3.53784 | 10370 ft | 262 kts | 68° |
| 2026-04-21 09:56 | 50.22067 | 3.56369 | 10236 ft | 254 kts | 68° |
| 2026-04-21 09:57 | 50.22742 | 3.58922 | 9942 ft | 254 kts | 69° |
| 2026-04-21 09:57 | 50.23417 | 3.61479 | 9655 ft | 256 kts | 69° |
| 2026-04-21 09:57 | 50.24093 | 3.64045 | 9367 ft | 255 kts | 69° |
| 2026-04-21 09:57 | 50.24765 | 3.66593 | 9069 ft | 250 kts | 69° |
| 2026-04-21 09:58 | 50.25416 | 3.69067 | 8797 ft | 240 kts | 69° |
| 2026-04-21 09:58 | 50.26046 | 3.71463 | 8548 ft | 237 kts | 69° |
| 2026-04-21 09:58 | 50.26671 | 3.73842 | 8278 ft | 236 kts | 69° |
| 2026-04-21 09:58 | 50.27291 | 3.76205 | 8012 ft | 234 kts | 69° |
| 2026-04-21 09:59 | 50.27906 | 3.78551 | 7769 ft | 233 kts | 69° |
| 2026-04-21 09:59 | 50.28510 | 3.80862 | 7510 ft | 232 kts | 69° |
| 2026-04-21 09:59 | 50.29123 | 3.83202 | 7283 ft | 226 kts | 69° |
| 2026-04-21 09:59 | 50.29707 | 3.85437 | 7005 ft | 219 kts | 69° |
| 2026-04-21 10:00 | 50.30269 | 3.87588 | 6760 ft | 213 kts | 70° |
| 2026-04-21 10:00 | 50.30819 | 3.89699 | 6512 ft | 207 kts | 70° |
| 2026-04-21 10:00 | 50.31356 | 3.91760 | 6266 ft | 202 kts | 69° |
| 2026-04-21 10:00 | 50.31883 | 3.93785 | 6062 ft | 201 kts | 69° |
| 2026-04-21 10:01 | 50.32411 | 3.95820 | 5841 ft | 202 kts | 69° |
| 2026-04-21 10:01 | 50.32943 | 3.97868 | 5623 ft | 204 kts | 69° |
| 2026-04-21 10:01 | 50.33478 | 3.99929 | 5402 ft | 205 kts | 69° |
| 2026-04-21 10:01 | 50.34018 | 4.02016 | 5030 ft | 211 kts | 68° |
| 2026-04-21 10:02 | 50.35075 | 4.06092 | 4717 ft | 191 kts | 70° |
| 2026-04-21 10:02 | 50.35557 | 4.07951 | 4636 ft | 178 kts | 69° |
| 2026-04-21 10:02 | 50.36008 | 4.09699 | 4570 ft | 171 kts | 70° |
| 2026-04-21 10:03 | 50.36452 | 4.11416 | 4493 ft | 171 kts | 70° |
| 2026-04-21 10:03 | 50.36898 | 4.13146 | 4435 ft | 172 kts | 69° |
| 2026-04-21 10:03 | 50.37324 | 4.14923 | 4278 ft | 177 kts | 70° |
| 2026-04-21 10:03 | 50.37775 | 4.16701 | 4108 ft | 176 kts | 69° |
| 2026-04-21 10:04 | 50.38253 | 4.18458 | 3899 ft | 174 kts | 68° |
| 2026-04-21 10:04 | 50.38732 | 4.20163 | 3692 ft | 169 kts | 67° |
| 2026-04-21 10:04 | 50.39206 | 4.21822 | 3491 ft | 164 kts | 66° |
| 2026-04-21 10:04 | 50.39671 | 4.23444 | 3322 ft | 165 kts | 67° |
| 2026-04-21 10:05 | 50.40132 | 4.25045 | 3142 ft | 156 kts | 66° |
| 2026-04-21 10:05 | 50.40560 | 4.26530 | 2977 ft | 146 kts | 67° |
| 2026-04-21 10:05 | 50.40971 | 4.27955 | 2865 ft | 145 kts | 67° |
| 2026-04-21 10:05 | 50.41392 | 4.29416 | 2681 ft | 148 kts | 67° |
| 2026-04-21 10:06 | 50.41819 | 4.30892 | 2480 ft | 147 kts | 66° |
| 2026-04-21 10:06 | 50.42238 | 4.32344 | 2272 ft | 145 kts | 66° |
| 2026-04-21 10:06 | 50.42643 | 4.33744 | 2112 ft | 135 kts | 66° |
| 2026-04-21 10:06 | 50.43007 | 4.35002 | 1939 ft | 121 kts | 67° |
| 2026-04-21 10:07 | 50.43355 | 4.36207 | 1777 ft | 122 kts | 66° |
| 2026-04-21 10:07 | 50.43704 | 4.37415 | 1574 ft | 123 kts | 66° |
| 2026-04-21 10:07 | 50.44058 | 4.38638 | 1425 ft | 125 kts | 66° |
| 2026-04-21 10:07 | 50.44417 | 4.39872 | 1258 ft | 124 kts | 66° |
| 2026-04-21 10:08 | 50.44755 | 4.41093 | 1084 ft | 120 kts | 65° |
| 2026-04-21 10:08 | 50.45126 | 4.42322 | 949 ft | 133 kts | 64° |
| 2026-04-21 10:08 | 50.45502 | 4.43648 | 739 ft | 132 kts | 63° |
| 2026-04-21 10:08 | 50.45885 | 4.44938 | 629 ft | 127 kts | 63° |
| 2026-04-21 10:09 | 50.46226 | 4.46085 | 612 ft | 84 kts | 66° |
| 2026-04-21 10:09 | 50.46362 | 4.46573 | 617 ft | 42 kts | 67° |
| 2026-04-21 10:09 | 50.46438 | 4.46833 | 617 ft | 14 kts | 64° |
| 2026-04-21 10:09 | 50.46519 | 4.46881 | 620 ft | 14 kts | 335° |
| 2026-04-21 10:10 | 50.46575 | 4.46841 | 621 ft | 8 kts | 341° |
| 2026-04-21 10:10 | 50.46628 | 4.46807 | 615 ft | 8 kts | 335° |
| 2026-04-21 10:10 | 50.46680 | 4.46782 | 618 ft | 8 kts | 1° |
| 2026-04-21 10:10 | 50.46717 | 4.46834 | 612 ft | 8 kts | 70° |
| 2026-04-21 10:11 | 50.46737 | 4.46909 | 619 ft | 7 kts | 66° |
| 2026-04-21 10:11 | 50.46758 | 4.46980 | 623 ft | 7 kts | 65° |
| 2026-04-21 10:11 | 50.46778 | 4.47049 | 625 ft | 7 kts | 64° |
| 2026-04-21 10:11 | 50.46798 | 4.47117 | 615 ft | 7 kts | 66° |
| 2026-04-21 10:12 | 50.46815 | 4.47177 | 623 ft | 4 kts | 66° |
| 2026-04-21 10:12 | 50.46836 | 4.47205 | 617 ft | 4 kts | 6° |
| 2026-04-21 10:12 | 50.46863 | 4.47186 | 622 ft | 4 kts | 334° |
| 2026-04-21 10:12 | 50.46882 | 4.47172 | 618 ft | 1 kts | 335° |
| 2026-04-21 10:13 | 50.46889 | 4.47167 | 622 ft | 1 kts | 335° |
| 2026-04-21 10:13 | 50.46892 | 4.47164 | 620 ft | 0 kts | 335° |